Time;durP1;ratioP1;P1;durP2;ratioP2;P2;SDS_P1;SDS_P2;PMS_P1;PMS_P2;Temp;Humidity;BMP_temperature;BMP_pressure;BME280_temperature;BME280_humidity;BME280_pressure;Samples;Min_cycle;Max_cycle;Signal;HPM_P1;HPM_P2
2022/12/03 00:01:55;;;;;;;5.25;2.72;;;;;;;-15.44;54.18;99880.94;6200450;28;20439;-66
2022/12/03 00:04:59;;;;;;;7.07;3.83;;;;;;;-15.44;54.14;99894.44;6200810;28;20517;-68
2022/12/03 00:08:05;;;;;;;7.30;4.85;;;;;;;-15.32;54.09;99896.22;6200753;28;20086;-66
2022/12/03 00:11:09;;;;;;;9.95;4.00;;;;;;;-15.41;54.24;99879.53;6200645;28;20402;-66
2022/12/03 00:14:10;;;;;;;7.35;3.78;;;;;;;-15.30;54.30;99892.22;6199930;28;20062;-67
2022/12/03 00:17:13;;;;;;;;;;;;;;;-15.11;53.86;99898.06;6200357;28;20050;-66
2022/12/03 00:20:22;;;;;;;11.27;6.18;;;;;;;-15.21;54.22;99892.97;6200722;28;19928;-67
2022/12/03 00:23:29;;;;;;;7.68;4.00;;;;;;;-15.23;54.09;99884.38;6200406;28;20054;-67
2022/12/03 00:26:32;;;;;;;12.48;5.40;;;;;;;-15.21;54.05;99890.44;6200180;28;20050;-67
2022/12/03 00:29:34;;;;;;;8.85;4.25;;;;;;;-15.15;53.87;99896.00;6200183;28;20378;-67
2022/12/03 00:32:36;;;;;;;5.85;3.90;;;;;;;-15.14;54.17;99894.38;6198483;28;20478;-67
2022/12/03 00:35:42;;;;;;;12.25;6.28;;;;;;;-15.07;54.26;99889.09;6200380;28;20409;-67
2022/12/03 00:38:43;;;;;;;7.88;4.68;;;;;;;-15.07;53.90;99894.13;6200046;28;20045;-67
2022/12/03 00:41:45;;;;;;;10.13;4.95;;;;;;;-15.04;54.37;99894.38;6199683;28;20042;-66
2022/12/03 00:44:46;;;;;;;7.93;4.28;;;;;;;-15.06;54.44;99899.31;6199717;28;20505;-66
2022/12/03 00:47:47;;;;;;;9.45;4.28;;;;;;;-15.08;54.51;99893.25;6199792;28;20042;-66
2022/12/03 00:50:54;;;;;;;13.20;5.95;;;;;;;-15.02;54.26;99896.28;6199733;28;20046;-66
2022/12/03 00:53:55;;;;;;;18.50;6.93;;;;;;;-15.00;54.16;99891.34;6199572;28;20050;-65
2022/12/03 00:56:56;;;;;;;10.50;4.03;;;;;;;-14.90;54.13;99905.66;6199332;28;20133;-67
2022/12/03 01:00:01;;;;;;;17.08;6.55;;;;;;;-14.91;54.28;99906.41;6199458;28;20046;-66
2022/12/03 01:03:04;;;;;;;12.65;6.90;;;;;;;-14.93;54.00;99906.28;6199561;28;20042;-67
2022/12/03 01:06:08;;;;;;;8.52;4.45;;;;;;;-14.91;54.24;99902.25;6199398;28;20442;-66
2022/12/03 01:09:15;;;;;;;7.40;4.15;;;;;;;-14.81;54.13;99903.88;6199327;28;20046;-68
2022/12/03 01:12:19;;;;;;;7.82;3.92;;;;;;;-14.79;54.08;99905.78;6182495;28;20421;-68
2022/12/03 01:15:21;;;;;;;10.30;5.10;;;;;;;-14.81;54.51;99916.50;6198741;28;20053;-67
2022/12/03 01:18:22;;;;;;;10.82;5.50;;;;;;;-14.82;54.60;99909.69;6198845;28;20054;-67
2022/12/03 01:21:27;;;;;;;10.07;5.05;;;;;;;-14.83;54.69;99902.84;6198728;28;20041;-67
2022/12/03 01:24:29;;;;;;;15.70;6.40;;;;;;;-14.72;54.60;99918.19;6198414;28;20081;-66
2022/12/03 01:27:30;;;;;;;17.33;6.35;;;;;;;-14.71;54.71;99914.00;6197972;28;20053;-66
2022/12/03 01:32:15;;;;;;;;;;;;;;;-14.63;54.69;99923.09;6199149;28;20046;-66
2022/12/03 01:33:57;;;;;;;8.40;5.00;;;;;;;-14.63;53.94;99915.53;6197849;28;19922;-68
2022/12/03 01:36:58;;;;;;;11.57;5.65;;;;;;;-14.64;54.22;99911.19;6198516;28;20045;-67
2022/12/03 01:39:59;;;;;;;13.23;5.43;;;;;;;-14.59;54.28;99921.72;6198649;28;20046;-67
2022/12/03 01:43:01;;;;;;;9.07;4.68;;;;;;;-14.55;54.21;99917.03;6197902;28;20538;-67
2022/12/03 01:46:05;;;;;;;10.57;5.35;;;;;;;-14.49;54.28;99921.66;6197358;28;20424;-68
2022/12/03 01:49:14;;;;;;;6.00;3.10;;;;;;;-14.53;54.59;99923.09;6197824;28;20059;-67
2022/12/03 01:52:20;;;;;;;10.82;4.25;;;;;;;-14.48;54.18;99914.19;6198093;28;20046;-67
2022/12/03 01:55:24;;;;;;;9.25;4.15;;;;;;;-14.47;53.91;99915.97;6198305;28;20528;-67
2022/12/03 01:58:28;;;;;;;9.85;4.95;;;;;;;-14.49;54.04;99925.09;6197680;28;20145;-66
2022/12/03 02:01:29;;;;;;;7.18;3.63;;;;;;;-14.53;54.51;99925.63;6197397;28;20058;-67
2022/12/03 02:04:31;;;;;;;8.80;4.18;;;;;;;-14.57;54.32;99923.59;6197892;28;20437;-66
2022/12/03 02:07:35;;;;;;;9.82;4.50;;;;;;;-14.60;54.46;99923.34;6197077;28;20053;-67
2022/12/03 02:10:37;;;;;;;10.88;4.60;;;;;;;-14.52;54.30;99937.53;6197128;28;20042;-67
2022/12/03 02:13:39;;;;;;;14.13;5.03;;;;;;;-14.60;54.41;99928.41;6197982;28;20091;-67
2022/12/03 02:16:45;;;;;;;6.25;3.85;;;;;;;-14.54;54.38;99931.44;6197794;28;20049;-67
2022/12/03 02:19:47;;;;;;;8.32;4.60;;;;;;;-14.53;54.56;99920.56;6197420;28;20058;-67
2022/12/03 02:22:59;;;;;;;10.55;4.72;;;;;;;-14.37;54.25;99936.97;6196763;28;20057;-67
2022/12/03 02:26:05;;;;;;;;;;;;;;;-14.42;53.89;99939.09;6197893;28;20046;-66
2022/12/03 02:29:06;;;;;;;6.18;4.20;;;;;;;-14.45;54.12;99940.50;6196876;28;19926;-67
2022/12/03 02:32:09;;;;;;;5.15;2.55;;;;;;;-14.36;54.18;99939.59;6196946;28;20058;-68
2022/12/03 02:35:15;;;;;;;;;;;;;;;-14.36;53.89;99938.72;6197323;28;20124;-67
2022/12/03 02:38:25;;;;;;;8.02;4.03;;;;;;;-14.36;53.87;99941.25;6196359;28;19928;-68
2022/12/03 02:44:50;;;;;;;4.53;2.38;;;;;;;-14.41;53.94;99942.50;6197451;28;20125;-68
2022/12/03 02:48:02;;;;;;;6.78;3.63;;;;;;;-14.34;54.16;99942.28;6196479;28;20058;-68
2022/12/03 02:51:08;;;;;;;6.85;3.75;;;;;;;-14.40;54.11;99936.72;6197386;28;20482;-67
2022/12/03 02:54:09;;;;;;;7.22;3.72;;;;;;;-14.38;54.33;99942.75;6196299;28;20056;-68
2022/12/03 02:57:10;;;;;;;5.30;3.10;;;;;;;-14.30;54.15;99954.41;6196205;28;20054;-67
2022/12/03 03:00:14;;;;;;;7.15;3.83;;;;;;;-14.31;54.42;99947.59;6196297;28;20046;-67
2022/12/03 03:03:18;;;;;;;4.97;2.63;;;;;;;-14.39;54.34;99946.06;6196782;28;20058;-67
2022/12/03 03:06:23;;;;;;;6.20;3.40;;;;;;;-14.27;54.33;99954.66;6196543;28;20050;-67
2022/12/03 03:09:24;;;;;;;10.77;4.07;;;;;;;-14.47;54.24;99943.78;6195935;28;20453;-67
2022/12/03 03:12:28;;;;;;;6.82;3.10;;;;;;;-14.45;54.36;99937.97;6196384;28;20525;-68
2022/12/03 03:15:39;;;;;;;4.22;2.47;;;;;;;-14.40;54.37;99946.84;6196745;28;20046;-68
2022/12/03 03:18:41;;;;;;;;;;;;;;;-14.37;54.22;99949.63;6196590;28;20490;-66
2022/12/03 03:21:45;;;;;;;8.98;3.50;;;;;;;-14.33;53.89;99944.91;6199815;28;19921;-67
2022/12/03 03:24:46;;;;;;;6.85;3.42;;;;;;;-14.37;54.26;99949.63;6201148;28;20141;-66
2022/12/03 03:27:49;;;;;;;;;;;;;;;-14.32;53.89;99953.38;6201873;28;20521;-66
2022/12/03 03:30:51;;;;;;;7.97;3.45;;;;;;;-14.44;54.17;99940.63;6200871;28;19917;-67
2022/12/03 03:33:53;;;;;;;5.05;3.03;;;;;;;-14.35;54.48;99950.59;6200522;28;20403;-67
2022/12/03 03:36:59;;;;;;;7.05;2.90;;;;;;;-14.44;54.59;99945.69;6200749;28;20042;-66
2022/12/03 03:40:03;;;;;;;5.40;2.80;;;;;;;-14.41;54.27;99960.22;6200277;28;20046;-67
2022/12/03 03:43:11;;;;;;;4.72;3.10;;;;;;;-14.33;54.51;99954.16;6201306;28;20425;-67
2022/12/03 03:46:18;;;;;;;2.90;2.17;;;;;;;-14.31;54.69;99957.69;6200944;28;20054;-67
2022/12/03 03:49:20;;;;;;;5.55;2.38;;;;;;;-14.28;54.72;99968.06;6200580;28;20058;-66
2022/12/03 03:52:22;;;;;;;11.02;4.78;;;;;;;-14.31;54.96;99965.28;6200537;28;20532;-66
2022/12/03 03:55:28;;;;;;;6.72;3.20;;;;;;;-14.20;54.69;99967.06;6200829;28;20063;-66
2022/12/03 03:58:29;;;;;;;6.68;3.67;;;;;;;-14.05;53.89;99957.28;6200075;28;20046;-67
2022/12/03 04:01:31;;;;;;;6.00;3.45;;;;;;;-14.39;54.05;99933.41;6200263;28;20085;-68
2022/12/03 04:04:35;;;;;;;5.82;3.42;;;;;;;-14.23;54.45;99948.22;6199822;28;20050;-67
2022/12/03 04:07:37;;;;;;;6.85;4.20;;;;;;;-14.33;54.51;99923.81;6200176;28;20054;-68
2022/12/03 04:14:00;;;;;;;4.75;3.15;;;;;;;-14.06;54.49;99960.59;6199574;28;20046;-66
2022/12/03 04:17:09;;;;;;;3.25;2.85;;;;;;;-13.99;54.54;99961.94;6200513;28;20046;-67
2022/12/03 04:20:12;;;;;;;6.03;2.85;;;;;;;-14.06;54.70;99963.13;6200666;28;20505;-68
2022/12/03 04:23:19;;;;;;;4.30;2.95;;;;;;;-13.98;54.42;99968.78;6200272;28;20046;-67
2022/12/03 04:29:43;;;;;;;7.50;3.80;;;;;;;-13.90;54.63;99967.75;6200434;28;20042;-69
2022/12/03 04:36:04;;;;;;;4.90;3.25;;;;;;;-13.81;55.03;99971.03;6198989;28;20508;-67
2022/12/03 04:39:08;;;;;;;6.57;3.35;;;;;;;-13.73;54.47;99964.91;6200028;28;20541;-68
2022/12/03 04:42:11;;;;;;;9.25;4.22;;;;;;;-13.73;54.70;99962.38;6199233;28;20061;-69
2022/12/03 04:45:19;;;;;;;7.43;3.83;;;;;;;-13.57;54.55;99974.63;6199476;28;20058;-67
2022/12/03 04:48:23;;;;;;;9.35;3.58;;;;;;;-13.48;54.56;99964.34;6199022;28;20058;-68
2022/12/03 04:51:24;;;;;;;;;;;;;;;-13.43;54.07;99968.13;6199994;28;20038;-67
2022/12/03 04:54:27;;;;;;;5.25;3.53;;;;;;;-13.35;53.84;99969.63;6198909;28;19922;-68
2022/12/03 04:57:31;;;;;;;4.47;3.17;;;;;;;-13.32;54.38;99974.91;6198839;28;20441;-68
2022/12/03 05:00:38;;;;;;;6.45;2.95;;;;;;;-13.38;54.02;99957.59;6198310;28;20149;-68
2022/12/03 05:03:41;;;;;;;6.63;2.65;;;;;;;-13.18;54.04;99974.31;6198743;28;20053;-68
2022/12/03 05:06:47;;;;;;;4.03;2.70;;;;;;;-13.22;54.14;99963.81;6199319;28;20417;-68
2022/12/03 05:09:52;;;;;;;10.32;3.50;;;;;;;-13.09;54.19;99970.72;6198573;28;20054;-68
2022/12/03 05:12:53;;;;;;;8.40;4.10;;;;;;;-12.96;54.17;99978.53;6198329;28;20057;-67
2022/12/03 05:15:54;;;;;;;10.30;3.22;;;;;;;-12.88;53.94;99972.34;6198556;28;20432;-67
2022/12/03 05:18:59;;;;;;;6.10;3.60;;;;;;;-12.84;53.75;99973.50;6198077;28;20050;-66
2022/12/03 05:22:02;;;;;;;6.22;3.35;;;;;;;-12.79;53.66;99979.78;6198925;28;20055;-67
2022/12/03 05:25:05;;;;;;;8.38;3.58;;;;;;;-12.63;53.88;99979.31;6180686;28;20053;-67
2022/12/03 05:28:06;;;;;;;11.45;3.10;;;;;;;-12.56;53.61;99986.63;6198186;28;20145;-67
2022/12/03 05:31:08;;;;;;;6.70;3.58;;;;;;;-12.46;53.38;99978.94;6197665;28;20046;-67
2022/12/03 05:34:09;;;;;;;5.60;2.80;;;;;;;-12.31;52.89;99979.19;6198484;28;20421;-67
2022/12/03 05:37:16;;;;;;;8.02;4.45;;;;;;;-12.29;52.94;99976.00;6198437;28;20042;-68
2022/12/03 05:40:19;;;;;;;9.45;4.03;;;;;;;-12.16;52.53;99979.47;6198110;28;20053;-67
2022/12/03 05:43:23;;;;;;;9.90;4.25;;;;;;;-12.06;52.71;99971.75;6197795;28;20050;-68
2022/12/03 05:46:24;;;;;;;6.88;3.17;;;;;;;-11.91;51.72;99974.53;6197386;28;20058;-67
2022/12/03 05:49:30;;;;;;;7.53;4.07;;;;;;;-11.91;52.29;99977.97;6198167;28;20047;-67
2022/12/03 05:52:36;;;;;;;6.28;3.25;;;;;;;-11.82;52.27;99980.25;6198194;28;20054;-67
2022/12/03 05:55:40;;;;;;;8.07;3.67;;;;;;;-11.66;51.90;99980.59;6198050;28;20429;-68
2022/12/03 05:58:44;;;;;;;7.63;3.78;;;;;;;-11.41;51.40;99978.13;6197180;28;20132;-67
2022/12/03 06:01:48;;;;;;;6.70;3.00;;;;;;;-11.37;51.30;99990.28;6197448;28;20069;-66
2022/12/03 06:04:49;;;;;;;7.47;3.25;;;;;;;-11.23;50.85;99983.66;6196761;28;20057;-67
2022/12/03 06:07:54;;;;;;;6.07;3.30;;;;;;;-11.18;50.65;99981.41;6197106;28;20061;-68
2022/12/03 06:10:58;;;;;;;9.18;4.18;;;;;;;-11.06;50.38;99992.47;6197507;28;20046;-68
2022/12/03 06:14:00;;;;;;;9.18;4.38;;;;;;;-10.92;50.33;99989.22;6197662;28;20045;-68
2022/12/03 06:17:03;;;;;;;9.18;4.13;;;;;;;-10.79;49.90;99979.88;6197577;28;20057;-68
2022/12/03 06:20:05;;;;;;;9.30;4.47;;;;;;;-10.58;49.40;99986.47;6196916;28;20053;-68
2022/12/03 06:23:10;;;;;;;7.63;3.78;;;;;;;-10.34;49.23;99988.91;6197422;28;20053;-67
2022/12/03 06:26:11;;;;;;;9.85;3.90;;;;;;;-10.05;48.90;99978.94;6197592;28;20042;-68
2022/12/03 06:29:12;;;;;;;7.88;3.85;;;;;;;-9.66;47.94;99984.88;6196959;28;20042;-67
2022/12/03 06:32:14;;;;;;;4.90;2.97;;;;;;;-9.33;47.37;99990.38;6196920;28;20049;-67
2022/12/03 06:35:16;;;;;;;8.15;3.90;;;;;;;-9.10;47.29;99974.84;6195990;28;20409;-67
2022/12/03 06:38:17;;;;;;;4.18;3.00;;;;;;;-8.72;46.56;99981.44;6197163;28;20038;-67
2022/12/03 06:41:21;;;;;;;9.60;3.35;;;;;;;-8.18;45.79;99975.31;6196985;28;20070;-66
2022/12/03 06:44:22;;;;;;;7.53;2.97;;;;;;;-7.66;44.34;99969.75;6196310;28;20054;-67
2022/12/03 06:47:26;;;;;;;8.95;4.00;;;;;;;-7.36;44.21;99972.25;6196495;28;20046;-69
2022/12/03 06:50:28;;;;;;;6.63;3.17;;;;;;;-7.05;43.85;99969.72;6196154;28;20533;-66
2022/12/03 06:53:32;;;;;;;5.22;3.60;;;;;;;-6.66;43.26;99970.09;6197071;28;20050;-67
2022/12/03 06:56:34;;;;;;;8.27;3.40;;;;;;;-6.37;42.45;99972.53;6195794;28;20129;-67
2022/12/03 06:59:40;;;;;;;6.60;3.10;;;;;;;-6.29;41.82;99956.66;6196224;28;20062;-67
2022/12/03 07:02:44;;;;;;;8.35;3.72;;;;;;;-6.74;42.53;99958.56;6196360;28;20077;-67
2022/12/03 07:05:48;;;;;;;6.32;3.55;;;;;;;-7.29;43.20;99959.91;6196915;28;20133;-67
2022/12/03 07:08:52;;;;;;;7.22;3.97;;;;;;;-7.49;43.07;99960.47;6196605;28;20046;-67
2022/12/03 07:11:56;;;;;;;7.55;3.67;;;;;;;-4.36;39.50;99959.00;6195865;28;20046;-66
2022/12/03 07:15:03;;;;;;;11.52;3.40;;;;;;;0.22;34.58;99955.16;6196634;28;20449;-67
2022/12/03 07:18:10;;;;;;;4.55;2.53;;;;;;;2.87;32.08;99954.56;6196601;28;20057;-69
2022/12/03 07:21:16;;;;;;;9.95;3.35;;;;;;;4.03;31.12;99953.47;6196667;28;20517;-67
2022/12/03 07:24:24;;;;;;;6.63;2.65;;;;;;;5.18;31.29;99937.94;6196547;28;20047;-68
2022/12/03 07:27:29;;;;;;;5.63;3.25;;;;;;;6.63;30.42;99945.38;6196765;28;20046;-67
2022/12/03 07:30:30;;;;;;;5.00;3.08;;;;;;;8.04;28.05;99949.38;6178879;28;20046;-67
2022/12/03 07:33:38;;;;;;;5.53;3.08;;;;;;;9.02;26.34;99937.28;6196164;28;20054;-68
2022/12/03 07:36:43;;;;;;;6.65;3.08;;;;;;;10.18;24.84;99930.63;6196174;28;20046;-69
2022/12/03 07:39:45;;;;;;;4.85;2.58;;;;;;;11.05;23.84;99931.03;6196032;28;20538;-68
2022/12/03 07:42:46;;;;;;;6.03;3.35;;;;;;;11.62;23.18;99932.56;6196430;28;20047;-68
2022/12/03 07:45:50;;;;;;;10.70;4.40;;;;;;;12.53;22.05;99913.00;6196411;28;20519;-68
2022/12/03 07:48:54;;;;;;;6.70;3.58;;;;;;;12.90;21.58;99917.34;6196591;28;20054;-67
2022/12/03 07:52:00;;;;;;;6.97;3.45;;;;;;;12.89;20.42;99915.63;6196424;28;20038;-68
2022/12/03 07:55:05;;;;;;;9.13;4.18;;;;;;;12.67;19.97;99915.28;6178333;28;20089;-68
2022/12/03 07:58:09;;;;;;;5.82;3.28;;;;;;;12.19;18.76;99918.19;6179133;28;20561;-68
2022/12/03 08:01:10;;;;;;;7.57;3.03;;;;;;;11.83;18.91;99920.69;6178799;28;20041;-68
2022/12/03 08:04:13;;;;;;;6.28;3.22;;;;;;;12.18;18.85;99912.06;6195019;28;20054;-68
2022/12/03 08:07:14;;;;;;;5.32;3.35;;;;;;;12.63;18.81;99881.94;6196167;28;20120;-68
2022/12/03 08:10:18;;;;;;;6.32;3.45;;;;;;;13.75;18.60;99916.81;6200548;28;20042;-68
2022/12/03 08:13:26;;;;;;;6.45;3.67;;;;;;;14.30;17.68;99914.28;6200620;28;20046;-68
2022/12/03 08:16:35;;;;;;;8.27;2.80;;;;;;;14.44;17.35;99908.53;6200740;28;20054;-67
2022/12/03 08:19:44;;;;;;;6.88;3.25;;;;;;;14.49;16.38;99909.25;6200545;28;20541;-68
2022/12/03 08:22:50;;;;;;;7.43;2.78;;;;;;;14.07;16.39;99909.69;6199719;28;20536;-68
2022/12/03 08:25:54;;;;;;;7.60;2.85;;;;;;;13.40;16.00;99905.47;6200139;28;20038;-68
2022/12/03 08:29:01;;;;;;;5.88;2.65;;;;;;;13.32;16.30;99911.88;6199895;28;20058;-67
2022/12/03 08:32:05;;;;;;;7.38;3.50;;;;;;;14.21;15.97;99907.50;6199684;28;20042;-68
2022/12/03 08:35:22;;;;;;;6.93;3.20;;;;;;;15.39;15.25;99918.59;6199786;28;20058;-68
2022/12/03 08:38:28;;;;;;;5.22;2.72;;;;;;;15.67;14.72;99908.69;6199705;28;20038;-67
2022/12/03 08:44:51;;;;;;;7.82;3.00;;;;;;;15.36;14.58;99911.59;6198458;28;20426;-68
2022/12/03 08:47:59;;;;;;;10.30;3.15;;;;;;;15.00;14.45;99908.44;6199791;28;20046;-67
2022/12/03 08:51:02;;;;;;;4.15;2.47;;;;;;;15.14;14.49;99906.19;6199723;28;20046;-68
2022/12/03 08:54:13;;;;;;;8.23;3.60;;;;;;;15.45;13.95;99910.41;6199552;28;20047;-68
2022/12/03 08:57:30;;;;;;;10.18;3.65;;;;;;;15.09;14.06;99907.25;6198882;28;20047;-68
2022/12/03 09:00:31;;;;;;;10.52;3.88;;;;;;;14.52;14.53;99901.22;6198792;28;20145;-68
2022/12/03 09:03:38;;;;;;;4.50;2.17;;;;;;;13.98;14.42;99889.63;6199346;28;20043;-68
2022/12/03 09:06:44;;;;;;;5.63;2.55;;;;;;;13.48;14.79;99878.81;6198669;28;20058;-68
2022/12/03 09:09:48;;;;;;;9.98;3.03;;;;;;;13.14;15.00;99884.13;6199282;28;20417;-68
2022/12/03 09:12:49;;;;;;;6.88;2.88;;;;;;;13.21;15.08;99881.25;6198848;28;20050;-68
2022/12/03 09:15:57;;;;;;;5.18;2.53;;;;;;;12.77;15.05;99879.81;6199223;28;20050;-68
2022/12/03 09:18:59;;;;;;;9.18;2.97;;;;;;;12.28;15.22;99871.31;6197714;28;20057;-68
2022/12/03 09:22:02;;;;;;;4.22;2.55;;;;;;;11.55;15.43;99873.81;6198259;28;20050;-69
2022/12/03 09:25:04;;;;;;;14.30;3.58;;;;;;;11.28;15.98;99864.69;6198971;28;20425;-68
2022/12/03 09:28:09;;;;;;;;;;;;;;;12.12;15.51;99860.28;6199198;28;20042;-69
2022/12/03 09:31:11;;;;;;;5.25;2.63;;;;;;;11.79;15.57;99866.28;6180818;28;19926;-68
2022/12/03 09:34:17;;;;;;;8.18;3.25;;;;;;;11.38;15.86;99849.56;6198387;28;20046;-69
2022/12/03 09:37:23;;;;;;;9.00;3.20;;;;;;;10.49;15.94;99846.81;6198766;28;20050;-68
2022/12/03 09:40:25;;;;;;;7.45;3.35;;;;;;;10.08;16.36;99850.13;6198350;28;20390;-68
2022/12/03 09:43:29;;;;;;;5.78;2.30;;;;;;;9.80;16.59;99850.50;6197725;28;20050;-69
2022/12/03 09:46:35;;;;;;;5.20;2.70;;;;;;;9.04;16.80;99846.22;6181133;28;20065;-68
2022/12/03 09:49:37;;;;;;;8.85;3.00;;;;;;;8.75;17.15;99852.66;6180633;28;20081;-68
2022/12/03 09:52:45;;;;;;;4.18;2.88;;;;;;;8.86;17.14;99848.16;6198400;28;20050;-69
2022/12/03 09:55:49;;;;;;;5.28;2.70;;;;;;;9.55;16.78;99843.84;6198239;28;20038;-69
2022/12/03 09:58:51;;;;;;;4.00;2.45;;;;;;;9.54;16.76;99842.09;6198203;28;20074;-68
2022/12/03 10:01:55;;;;;;;6.85;2.58;;;;;;;7.67;17.88;99843.81;6197958;28;20050;-69
2022/12/03 10:04:58;;;;;;;3.95;2.35;;;;;;;3.87;20.88;99839.53;6197628;28;20050;-68
2022/12/03 10:08:06;;;;;;;6.22;2.40;;;;;;;0.50;24.12;99834.97;6197797;28;20042;-68
2022/12/03 10:11:10;;;;;;;7.30;2.67;;;;;;;-1.96;27.36;99824.72;6197737;28;20132;-70
2022/12/03 10:14:14;;;;;;;7.28;3.25;;;;;;;-3.45;29.32;99841.81;6196906;28;20050;-69
2022/12/03 10:17:21;;;;;;;3.92;2.60;;;;;;;-4.43;30.90;99835.28;6197766;28;20437;-68
2022/12/03 10:20:24;;;;;;;6.78;3.22;;;;;;;-5.31;31.44;99828.88;6196994;28;20542;-68
2022/12/03 10:23:28;;;;;;;9.50;3.83;;;;;;;-5.76;33.09;99843.03;6196701;28;20141;-67
2022/12/03 10:26:41;;;;;;;14.75;5.22;;;;;;;-6.45;34.27;99838.03;6197486;28;20425;-67
2022/12/03 10:29:53;;;;;;;11.50;4.10;;;;;;;-6.82;34.87;99838.72;6196048;28;20153;-67
2022/12/03 10:33:10;;;;;;;15.60;4.43;;;;;;;-7.40;35.69;99838.22;6197328;28;20046;-67
2022/12/03 10:36:17;;;;;;;10.68;4.28;;;;;;;-7.91;36.25;99838.00;6197209;28;20042;-66
2022/12/03 10:39:19;;;;;;;12.88;4.45;;;;;;;-8.22;37.22;99840.50;6197315;28;20038;-67
2022/12/03 10:42:23;;;;;;;7.65;3.20;;;;;;;-8.44;37.82;99837.56;6196767;28;20050;-67
2022/12/03 10:45:27;;;;;;;6.05;2.83;;;;;;;-8.74;37.94;99841.78;6196978;28;20515;-67
2022/12/03 10:48:33;;;;;;;13.07;3.50;;;;;;;-8.89;38.74;99831.53;6197096;28;20486;-67
2022/12/03 10:51:38;;;;;;;9.90;3.53;;;;;;;-9.09;39.60;99843.97;6196933;28;20046;-67
2022/12/03 10:54:39;;;;;;;4.03;2.75;;;;;;;-9.34;39.43;99836.53;6196301;28;20077;-66
2022/12/03 10:57:41;;;;;;;6.85;2.55;;;;;;;-9.49;39.62;99836.44;6196962;28;20081;-68
2022/12/03 11:00:44;;;;;;;11.23;3.97;;;;;;;-9.65;40.27;99838.84;6196538;28;20421;-66
2022/12/03 11:03:46;;;;;;;7.85;3.17;;;;;;;-9.72;40.67;99831.59;6195750;28;20061;-68
2022/12/03 11:06:51;;;;;;;10.82;3.65;;;;;;;-9.91;41.18;99833.78;6196763;28;20041;-67
2022/12/03 11:10:01;;;;;;;8.65;3.50;;;;;;;-10.06;41.59;99838.78;6196687;28;20450;-68
2022/12/03 11:13:33;;;;;;;6.45;2.65;;;;;;;-10.22;41.88;99839.44;6196562;28;20043;-68
2022/12/03 11:16:40;;;;;;;8.65;2.60;;;;;;;-10.35;42.36;99844.59;6196303;28;20049;-68
2022/12/03 11:19:44;;;;;;;5.80;2.28;;;;;;;-10.54;42.27;99840.81;6196417;28;20054;-68
2022/12/03 11:22:51;;;;;;;8.75;2.47;;;;;;;-10.64;42.67;99841.91;6196708;28;20045;-67
2022/12/03 11:25:55;;;;;;;5.03;2.00;;;;;;;-10.80;42.74;99833.13;6196616;28;20537;-69
2022/12/03 11:28:58;;;;;;;8.20;2.95;;;;;;;-10.86;43.16;99834.50;6196626;28;20043;-68
2022/12/03 11:32:02;;;;;;;8.85;3.10;;;;;;;-10.92;43.54;99839.16;6196588;28;20524;-68
2022/12/03 11:35:14;;;;;;;7.72;2.95;;;;;;;-11.06;43.70;99837.38;6196250;28;20424;-67
2022/12/03 11:38:36;;;;;;;;;;;;;;;-11.14;43.00;99833.41;6196717;28;20046;-67
2022/12/03 11:41:37;;;;;;;9.40;3.50;;;;;;;-11.32;44.03;99831.38;6197814;28;19929;-69
2022/12/03 11:44:38;;;;;;;3.67;2.78;;;;;;;-11.44;43.84;99833.06;6201064;28;20035;-69
2022/12/03 11:47:44;;;;;;;7.30;3.28;;;;;;;-11.50;44.70;99830.09;6201033;28;20501;-68
2022/12/03 11:50:51;;;;;;;8.95;3.50;;;;;;;-11.62;44.92;99829.28;6183164;28;20421;-67
2022/12/03 11:53:56;;;;;;;7.70;3.38;;;;;;;-11.73;44.35;99830.19;6200720;28;20078;-68
2022/12/03 11:56:58;;;;;;;4.30;2.58;;;;;;;-11.73;44.77;99827.63;6201145;28;20049;-67
2022/12/03 12:00:04;;;;;;;;;;;;;;;-11.87;44.31;99826.69;6201487;28;20054;-67
2022/12/03 12:03:23;;;;;;;7.32;4.03;;;;;;;-12.05;45.40;99817.00;6199398;28;19929;-67
2022/12/03 12:06:27;;;;;;;7.85;3.50;;;;;;;-12.09;45.57;99827.69;6200746;28;20042;-67
2022/12/03 12:09:51;;;;;;;7.00;3.55;;;;;;;-12.18;45.78;99823.63;6199894;28;20046;-68
2022/12/03 12:12:52;;;;;;;;;;;;;;;-12.16;45.44;99832.25;6200245;28;20057;-68
2022/12/03 12:15:59;;;;;;;4.68;2.95;;;;;;;-12.45;46.07;99818.34;6200287;28;19921;-67
2022/12/03 12:19:34;;;;;;;7.72;3.90;;;;;;;-12.57;46.35;99820.84;6198974;28;20053;-67
2022/12/03 12:22:36;;;;;;;9.68;3.47;;;;;;;-12.62;46.53;99819.66;6200153;28;20050;-67
2022/12/03 12:25:40;;;;;;;8.23;3.35;;;;;;;-12.74;46.38;99817.06;6200478;28;20046;-67
2022/12/03 12:28:45;;;;;;;;;;;;;;;-12.75;46.60;99817.88;6200623;28;20046;-67
2022/12/03 12:31:47;;;;;;;5.93;2.78;;;;;;;-12.76;46.87;99816.09;6199405;28;20032;-67
2022/12/03 12:34:56;;;;;;;5.85;3.05;;;;;;;-12.86;47.29;99822.91;6199840;28;20054;-68
2022/12/03 12:38:06;;;;;;;8.35;3.28;;;;;;;-12.84;47.53;99817.19;6200050;28;20038;-66
2022/12/03 12:41:09;;;;;;;6.07;3.72;;;;;;;-12.99;47.82;99821.09;6199275;28;20051;-68
2022/12/03 12:44:13;;;;;;;7.90;3.85;;;;;;;-13.06;47.86;99816.38;6199084;28;20050;-67
2022/12/03 12:47:16;;;;;;;12.18;4.35;;;;;;;-13.06;48.62;99819.78;6199239;28;20046;-68
2022/12/03 12:50:18;;;;;;;9.75;4.50;;;;;;;-13.12;48.53;99820.19;6199692;28;20412;-68
2022/12/03 12:53:25;;;;;;;9.25;4.57;;;;;;;-13.11;48.97;99816.88;6198196;28;20050;-67
2022/12/03 12:56:30;;;;;;;12.93;4.50;;;;;;;-13.22;48.79;99807.59;6199571;28;20043;-67
2022/12/03 12:59:32;;;;;;;10.23;4.05;;;;;;;-13.24;48.94;99819.28;6198765;28;20065;-68
2022/12/03 13:02:37;;;;;;;5.82;4.05;;;;;;;-13.31;49.13;99811.13;6198827;28;20442;-68
2022/12/03 13:05:40;;;;;;;6.35;3.60;;;;;;;-13.34;48.99;99806.72;6199054;28;20519;-68
2022/12/03 13:08:44;;;;;;;21.60;6.78;;;;;;;-13.41;49.11;99807.91;6199243;28;20038;-67
2022/12/03 13:11:54;;;;;;;;;;;;;;;-13.48;48.66;99802.25;6199526;28;20045;-67
2022/12/03 13:14:58;;;;;;;40.80;13.98;;;;;;;-13.68;49.21;99804.13;6198454;28;19921;-67
2022/12/03 13:18:16;;;;;;;42.47;16.98;;;;;;;-13.77;49.34;99807.63;6198674;28;20054;-68
2022/12/03 13:21:36;;;;;;;45.63;14.77;;;;;;;-13.79;49.28;99799.91;6199041;28;20049;-68
2022/12/03 13:24:46;;;;;;;60.25;23.60;;;;;;;-13.85;49.14;99790.19;6198750;28;20132;-67
2022/12/03 13:27:50;;;;;;;64.45;24.48;;;;;;;-13.92;49.20;99798.06;6198880;28;20042;-68
2022/12/03 13:30:59;;;;;;;57.42;22.45;;;;;;;-13.97;49.82;99798.47;6198820;28;20089;-67
2022/12/03 13:34:13;;;;;;;73.32;26.33;;;;;;;-14.02;50.30;99796.47;6197302;28;20054;-68
2022/12/03 13:37:27;;;;;;;83.68;29.83;;;;;;;-14.09;50.13;99798.41;6198547;28;20038;-68
2022/12/03 13:40:33;;;;;;;75.57;26.83;;;;;;;-14.40;49.68;99762.22;6198134;28;20089;-69
2022/12/03 13:43:39;;;;;;;77.45;27.95;;;;;;;-14.27;49.97;99795.28;6198610;28;20055;-67
2022/12/03 13:46:40;;;;;;;82.35;27.73;;;;;;;-14.37;49.81;99797.88;6197567;28;20050;-67
2022/12/03 13:49:52;;;;;;;79.97;29.17;;;;;;;-14.40;50.56;99795.09;6180485;28;20050;-67
2022/12/03 13:52:58;;;;;;;85.13;29.58;;;;;;;-14.45;50.39;99791.31;6197661;28;20046;-69
2022/12/03 13:56:19;;;;;;;77.88;29.95;;;;;;;-14.50;50.63;99794.34;6197217;28;20046;-67
2022/12/03 13:59:23;;;;;;;81.07;30.92;;;;;;;-14.52;50.75;99801.00;6198054;28;20046;-67
2022/12/03 14:02:24;;;;;;;110.90;44.45;;;;;;;-14.55;50.64;99800.75;6197091;28;20058;-68
2022/12/03 14:05:28;;;;;;;134.75;52.45;;;;;;;-14.57;50.77;99791.28;6196927;28;20509;-67
2022/12/03 14:08:32;;;;;;;87.57;37.47;;;;;;;-14.54;50.82;99787.34;6197112;28;20144;-67
2022/12/03 14:14:56;;;;;;;119.00;45.00;;;;;;;-14.51;50.74;99779.94;6197870;28;20525;-66
2022/12/03 14:18:01;;;;;;;101.07;36.30;;;;;;;-14.51;51.03;99781.59;6197139;28;20054;-67
2022/12/03 14:21:05;;;;;;;61.35;22.00;;;;;;;-14.56;51.25;99777.84;6197527;28;20040;-68
2022/12/03 14:24:09;;;;;;;60.58;23.83;;;;;;;-14.59;50.84;99788.59;6197332;28;20049;-68
2022/12/03 14:27:11;;;;;;;44.15;19.67;;;;;;;-14.66;51.03;99783.84;6197309;28;20049;-67
2022/12/03 14:30:14;;;;;;;;;;;;;;;-14.68;50.97;99782.81;6197865;28;20042;-68
2022/12/03 14:33:18;;;;;;;38.55;14.85;;;;;;;-14.84;50.38;99769.69;6197484;28;19922;-68
2022/12/03 14:36:22;;;;;;;41.53;16.08;;;;;;;-14.84;50.65;99777.28;6197350;28;20402;-68
2022/12/03 14:39:23;;;;;;;33.03;14.48;;;;;;;-14.89;51.16;99786.13;6197164;28;20128;-68
2022/12/03 14:42:24;;;;;;;34.80;13.40;;;;;;;-14.94;51.04;99780.72;6196649;28;20051;-68
2022/12/03 14:45:28;;;;;;;;;;;;;;;-14.93;51.13;99783.34;6197703;28;20041;-68